sensor_id;sensor_type;location;lat;lon;timestamp;P1;durP1;ratioP1;P2;durP2;ratioP2
45254;SDS011;30989;52.078;21.014;2022-08-02T00:00:11;6.47;;;3.80;;
45254;SDS011;30989;52.078;21.014;2022-08-02T00:02:39;11.57;;;4.18;;
45254;SDS011;30989;52.078;21.014;2022-08-02T00:05:06;7.38;;;3.67;;
45254;SDS011;30989;52.078;21.014;2022-08-02T00:07:32;7.85;;;3.88;;
45254;SDS011;30989;52.078;21.014;2022-08-02T00:09:58;6.80;;;3.53;;
45254;SDS011;30989;52.078;21.014;2022-08-02T00:12:24;7.35;;;3.25;;
45254;SDS011;30989;52.078;21.014;2022-08-02T00:14:49;8.57;;;4.03;;
45254;SDS011;30989;52.078;21.014;2022-08-02T00:17:15;6.78;;;4.13;;
45254;SDS011;30989;52.078;21.014;2022-08-02T00:19:41;9.45;;;3.92;;
45254;SDS011;30989;52.078;21.014;2022-08-02T00:22:06;6.30;;;3.75;;
45254;SDS011;30989;52.078;21.014;2022-08-02T00:24:32;5.65;;;4.00;;
45254;SDS011;30989;52.078;21.014;2022-08-02T00:26:57;6.50;;;3.67;;
45254;SDS011;30989;52.078;21.014;2022-08-02T00:29:24;5.85;;;3.50;;
45254;SDS011;30989;52.078;21.014;2022-08-02T00:31:49;8.13;;;3.17;;
45254;SDS011;30989;52.078;21.014;2022-08-02T00:34:15;6.10;;;3.55;;
45254;SDS011;30989;52.078;21.014;2022-08-02T00:36:40;7.43;;;4.60;;
45254;SDS011;30989;52.078;21.014;2022-08-02T00:39:06;7.97;;;3.22;;
45254;SDS011;30989;52.078;21.014;2022-08-02T00:41:31;8.23;;;4.13;;
45254;SDS011;30989;52.078;21.014;2022-08-02T00:43:57;7.68;;;3.72;;
45254;SDS011;30989;52.078;21.014;2022-08-02T00:46:22;7.28;;;3.50;;
45254;SDS011;30989;52.078;21.014;2022-08-02T00:48:48;6.38;;;3.38;;
45254;SDS011;30989;52.078;21.014;2022-08-02T00:51:14;7.38;;;3.97;;
45254;SDS011;30989;52.078;21.014;2022-08-02T00:53:40;6.93;;;3.67;;
45254;SDS011;30989;52.078;21.014;2022-08-02T00:56:07;8.73;;;4.25;;
45254;SDS011;30989;52.078;21.014;2022-08-02T00:58:32;9.07;;;3.88;;
45254;SDS011;30989;52.078;21.014;2022-08-02T01:00:58;7.28;;;3.92;;
45254;SDS011;30989;52.078;21.014;2022-08-02T01:03:26;7.10;;;3.80;;
45254;SDS011;30989;52.078;21.014;2022-08-02T01:05:51;7.07;;;4.10;;
45254;SDS011;30989;52.078;21.014;2022-08-02T01:08:17;6.32;;;3.72;;
45254;SDS011;30989;52.078;21.014;2022-08-02T01:10:43;7.60;;;4.03;;
45254;SDS011;30989;52.078;21.014;2022-08-02T01:13:09;7.00;;;4.00;;
45254;SDS011;30989;52.078;21.014;2022-08-02T01:15:36;7.22;;;3.90;;
45254;SDS011;30989;52.078;21.014;2022-08-02T01:18:10;6.72;;;3.50;;
45254;SDS011;30989;52.078;21.014;2022-08-02T01:26:30;8.07;;;3.78;;
45254;SDS011;30989;52.078;21.014;2022-08-02T01:29:26;6.70;;;3.60;;
45254;SDS011;30989;52.078;21.014;2022-08-02T01:34:30;11.73;;;4.20;;
45254;SDS011;30989;52.078;21.014;2022-08-02T01:37:01;7.50;;;3.40;;
45254;SDS011;30989;52.078;21.014;2022-08-02T01:39:32;7.18;;;3.85;;
45254;SDS011;30989;52.078;21.014;2022-08-02T01:42:00;7.82;;;4.13;;
45254;SDS011;30989;52.078;21.014;2022-08-02T01:44:28;5.95;;;3.40;;
45254;SDS011;30989;52.078;21.014;2022-08-02T01:46:59;8.10;;;4.18;;
45254;SDS011;30989;52.078;21.014;2022-08-02T01:49:28;8.02;;;4.20;;
45254;SDS011;30989;52.078;21.014;2022-08-02T01:51:56;11.50;;;4.25;;
45254;SDS011;30989;52.078;21.014;2022-08-02T01:54:43;14.73;;;6.55;;
45254;SDS011;30989;52.078;21.014;2022-08-02T01:57:11;12.50;;;6.78;;
45254;SDS011;30989;52.078;21.014;2022-08-02T01:59:38;8.73;;;5.03;;
45254;SDS011;30989;52.078;21.014;2022-08-02T02:02:07;10.75;;;4.22;;
45254;SDS011;30989;52.078;21.014;2022-08-02T02:04:34;8.85;;;4.55;;
45254;SDS011;30989;52.078;21.014;2022-08-02T02:07:02;7.03;;;4.07;;
45254;SDS011;30989;52.078;21.014;2022-08-02T02:09:29;8.32;;;4.95;;
45254;SDS011;30989;52.078;21.014;2022-08-02T02:11:59;8.55;;;3.78;;
45254;SDS011;30989;52.078;21.014;2022-08-02T02:14:25;8.43;;;4.35;;
45254;SDS011;30989;52.078;21.014;2022-08-02T02:16:54;7.97;;;4.40;;
45254;SDS011;30989;52.078;21.014;2022-08-02T02:19:22;8.07;;;4.30;;
45254;SDS011;30989;52.078;21.014;2022-08-02T02:21:49;7.53;;;4.50;;
45254;SDS011;30989;52.078;21.014;2022-08-02T02:24:15;8.85;;;4.40;;
45254;SDS011;30989;52.078;21.014;2022-08-02T02:26:41;21.05;;;10.88;;
45254;SDS011;30989;52.078;21.014;2022-08-02T02:29:08;8.80;;;4.90;;
45254;SDS011;30989;52.078;21.014;2022-08-02T02:31:36;12.88;;;4.53;;
45254;SDS011;30989;52.078;21.014;2022-08-02T02:34:04;13.45;;;4.45;;
45254;SDS011;30989;52.078;21.014;2022-08-02T02:36:48;8.85;;;4.05;;
45254;SDS011;30989;52.078;21.014;2022-08-02T02:39:15;6.07;;;3.65;;
45254;SDS011;30989;52.078;21.014;2022-08-02T02:41:44;8.85;;;4.32;;
45254;SDS011;30989;52.078;21.014;2022-08-02T02:44:12;7.68;;;3.72;;
45254;SDS011;30989;52.078;21.014;2022-08-02T02:46:40;8.60;;;4.30;;
45254;SDS011;30989;52.078;21.014;2022-08-02T02:49:09;7.50;;;4.68;;
45254;SDS011;30989;52.078;21.014;2022-08-02T02:51:36;8.50;;;4.38;;
45254;SDS011;30989;52.078;21.014;2022-08-02T02:54:04;10.10;;;4.55;;
45254;SDS011;30989;52.078;21.014;2022-08-02T02:56:30;7.57;;;4.75;;
45254;SDS011;30989;52.078;21.014;2022-08-02T02:58:56;10.43;;;4.78;;
45254;SDS011;30989;52.078;21.014;2022-08-02T03:01:24;11.15;;;5.25;;
45254;SDS011;30989;52.078;21.014;2022-08-02T03:03:58;11.45;;;5.38;;
45254;SDS011;30989;52.078;21.014;2022-08-02T03:06:25;10.18;;;5.85;;
45254;SDS011;30989;52.078;21.014;2022-08-02T03:08:52;11.70;;;7.20;;
45254;SDS011;30989;52.078;21.014;2022-08-02T03:11:17;15.75;;;6.00;;
45254;SDS011;30989;52.078;21.014;2022-08-02T03:13:43;11.10;;;7.15;;
45254;SDS011;30989;52.078;21.014;2022-08-02T03:16:10;18.55;;;9.63;;
45254;SDS011;30989;52.078;21.014;2022-08-02T03:18:40;14.27;;;6.40;;
45254;SDS011;30989;52.078;21.014;2022-08-02T03:21:09;12.77;;;4.65;;
45254;SDS011;30989;52.078;21.014;2022-08-02T03:23:38;9.47;;;5.10;;
45254;SDS011;30989;52.078;21.014;2022-08-02T03:26:06;16.92;;;8.45;;
45254;SDS011;30989;52.078;21.014;2022-08-02T03:28:33;10.30;;;5.30;;
45254;SDS011;30989;52.078;21.014;2022-08-02T03:30:59;9.85;;;5.38;;
45254;SDS011;30989;52.078;21.014;2022-08-02T03:33:26;9.77;;;6.13;;
45254;SDS011;30989;52.078;21.014;2022-08-02T03:35:55;8.70;;;4.55;;
45254;SDS011;30989;52.078;21.014;2022-08-02T03:38:23;11.52;;;5.95;;
45254;SDS011;30989;52.078;21.014;2022-08-02T03:40:49;9.32;;;4.93;;
45254;SDS011;30989;52.078;21.014;2022-08-02T03:43:15;10.43;;;6.10;;
45254;SDS011;30989;52.078;21.014;2022-08-02T03:45:42;10.85;;;5.85;;
45254;SDS011;30989;52.078;21.014;2022-08-02T03:48:09;10.63;;;5.75;;
45254;SDS011;30989;52.078;21.014;2022-08-02T03:50:36;10.77;;;6.38;;
45254;SDS011;30989;52.078;21.014;2022-08-02T03:53:03;13.25;;;6.10;;
45254;SDS011;30989;52.078;21.014;2022-08-02T03:55:30;8.90;;;4.93;;
45254;SDS011;30989;52.078;21.014;2022-08-02T03:57:56;9.10;;;4.88;;
45254;SDS011;30989;52.078;21.014;2022-08-02T04:00:22;11.35;;;5.70;;
45254;SDS011;30989;52.078;21.014;2022-08-02T04:02:48;8.88;;;4.93;;
45254;SDS011;30989;52.078;21.014;2022-08-02T04:05:14;11.27;;;4.95;;
45254;SDS011;30989;52.078;21.014;2022-08-02T04:07:40;9.63;;;5.25;;
45254;SDS011;30989;52.078;21.014;2022-08-02T04:10:07;9.20;;;4.85;;
45254;SDS011;30989;52.078;21.014;2022-08-02T04:12:33;13.38;;;5.65;;
45254;SDS011;30989;52.078;21.014;2022-08-02T04:15:02;12.32;;;4.20;;
45254;SDS011;30989;52.078;21.014;2022-08-02T04:17:30;7.57;;;5.35;;
45254;SDS011;30989;52.078;21.014;2022-08-02T04:22:46;11.20;;;5.00;;
45254;SDS011;30989;52.078;21.014;2022-08-02T04:25:13;10.90;;;5.18;;
45254;SDS011;30989;52.078;21.014;2022-08-02T04:27:40;14.90;;;8.82;;
45254;SDS011;30989;52.078;21.014;2022-08-02T04:30:07;9.30;;;4.78;;
45254;SDS011;30989;52.078;21.014;2022-08-02T04:32:36;8.88;;;5.43;;
45254;SDS011;30989;52.078;21.014;2022-08-02T04:35:02;9.20;;;4.30;;
45254;SDS011;30989;52.078;21.014;2022-08-02T04:37:28;10.00;;;4.25;;
45254;SDS011;30989;52.078;21.014;2022-08-02T04:39:56;7.05;;;4.85;;
45254;SDS011;30989;52.078;21.014;2022-08-02T04:42:23;10.52;;;5.32;;
45254;SDS011;30989;52.078;21.014;2022-08-02T04:44:50;12.77;;;5.07;;
45254;SDS011;30989;52.078;21.014;2022-08-02T04:47:16;8.73;;;3.75;;
45254;SDS011;30989;52.078;21.014;2022-08-02T04:49:42;8.18;;;4.05;;
45254;SDS011;30989;52.078;21.014;2022-08-02T04:52:11;10.73;;;4.88;;
45254;SDS011;30989;52.078;21.014;2022-08-02T04:54:37;10.63;;;4.35;;
45254;SDS011;30989;52.078;21.014;2022-08-02T04:57:03;9.10;;;4.50;;
45254;SDS011;30989;52.078;21.014;2022-08-02T04:59:48;7.45;;;4.18;;
45254;SDS011;30989;52.078;21.014;2022-08-02T05:02:14;6.80;;;3.90;;
45254;SDS011;30989;52.078;21.014;2022-08-02T05:04:40;12.82;;;5.35;;
45254;SDS011;30989;52.078;21.014;2022-08-02T05:07:05;12.45;;;6.88;;
45254;SDS011;30989;52.078;21.014;2022-08-02T05:09:31;9.40;;;4.82;;
45254;SDS011;30989;52.078;21.014;2022-08-02T05:11:56;12.20;;;5.13;;
45254;SDS011;30989;52.078;21.014;2022-08-02T05:14:21;8.32;;;5.28;;
45254;SDS011;30989;52.078;21.014;2022-08-02T05:16:47;7.25;;;4.05;;
45254;SDS011;30989;52.078;21.014;2022-08-02T05:19:12;8.27;;;3.72;;
45254;SDS011;30989;52.078;21.014;2022-08-02T05:21:38;12.55;;;7.45;;
45254;SDS011;30989;52.078;21.014;2022-08-02T05:24:04;10.30;;;3.88;;
45254;SDS011;30989;52.078;21.014;2022-08-02T05:26:29;14.60;;;3.72;;
45254;SDS011;30989;52.078;21.014;2022-08-02T05:28:55;5.97;;;3.88;;
45254;SDS011;30989;52.078;21.014;2022-08-02T05:31:20;10.10;;;4.70;;
45254;SDS011;30989;52.078;21.014;2022-08-02T05:33:46;6.57;;;3.65;;
45254;SDS011;30989;52.078;21.014;2022-08-02T05:36:12;6.35;;;3.38;;
45254;SDS011;30989;52.078;21.014;2022-08-02T05:38:37;6.78;;;3.72;;
45254;SDS011;30989;52.078;21.014;2022-08-02T05:41:06;6.90;;;3.72;;
45254;SDS011;30989;52.078;21.014;2022-08-02T05:43:32;6.88;;;3.60;;
45254;SDS011;30989;52.078;21.014;2022-08-02T05:45:57;6.32;;;3.45;;
45254;SDS011;30989;52.078;21.014;2022-08-02T05:48:22;7.40;;;3.65;;
45254;SDS011;30989;52.078;21.014;2022-08-02T05:50:57;5.53;;;3.58;;
45254;SDS011;30989;52.078;21.014;2022-08-02T05:53:39;7.70;;;3.35;;
45254;SDS011;30989;52.078;21.014;2022-08-02T05:59:02;6.45;;;3.72;;
45254;SDS011;30989;52.078;21.014;2022-08-02T06:01:34;10.65;;;3.92;;
45254;SDS011;30989;52.078;21.014;2022-08-02T06:04:05;5.53;;;3.03;;
45254;SDS011;30989;52.078;21.014;2022-08-02T06:06:32;5.50;;;3.53;;
45254;SDS011;30989;52.078;21.014;2022-08-02T06:09:00;5.90;;;3.10;;
45254;SDS011;30989;52.078;21.014;2022-08-02T06:11:35;8.68;;;3.60;;
45254;SDS011;30989;52.078;21.014;2022-08-02T06:14:04;6.95;;;3.30;;
45254;SDS011;30989;52.078;21.014;2022-08-02T06:16:30;6.07;;;3.72;;
45254;SDS011;30989;52.078;21.014;2022-08-02T06:18:57;7.03;;;3.42;;
45254;SDS011;30989;52.078;21.014;2022-08-02T06:21:25;5.13;;;2.75;;
45254;SDS011;30989;52.078;21.014;2022-08-02T06:23:51;5.20;;;3.05;;
45254;SDS011;30989;52.078;21.014;2022-08-02T06:26:17;5.63;;;3.03;;
45254;SDS011;30989;52.078;21.014;2022-08-02T06:28:44;7.00;;;3.33;;
45254;SDS011;30989;52.078;21.014;2022-08-02T06:31:12;4.28;;;2.90;;
45254;SDS011;30989;52.078;21.014;2022-08-02T06:33:39;9.85;;;3.55;;
45254;SDS011;30989;52.078;21.014;2022-08-02T06:36:09;6.45;;;3.88;;
45254;SDS011;30989;52.078;21.014;2022-08-02T06:39:04;6.20;;;2.95;;
45254;SDS011;30989;52.078;21.014;2022-08-02T06:41:39;10.50;;;3.97;;
45254;SDS011;30989;52.078;21.014;2022-08-02T06:44:21;6.57;;;3.42;;
45254;SDS011;30989;52.078;21.014;2022-08-02T06:46:47;8.73;;;4.05;;
45254;SDS011;30989;52.078;21.014;2022-08-02T06:49:13;6.00;;;3.05;;
45254;SDS011;30989;52.078;21.014;2022-08-02T06:51:38;12.15;;;3.22;;
45254;SDS011;30989;52.078;21.014;2022-08-02T06:54:04;6.50;;;3.15;;
45254;SDS011;30989;52.078;21.014;2022-08-02T06:56:29;6.13;;;3.60;;
45254;SDS011;30989;52.078;21.014;2022-08-02T06:58:55;4.15;;;2.45;;
45254;SDS011;30989;52.078;21.014;2022-08-02T07:01:20;5.80;;;3.00;;
45254;SDS011;30989;52.078;21.014;2022-08-02T07:03:46;8.68;;;3.33;;
45254;SDS011;30989;52.078;21.014;2022-08-02T07:06:11;7.43;;;3.15;;
45254;SDS011;30989;52.078;21.014;2022-08-02T07:08:37;4.38;;;2.72;;
45254;SDS011;30989;52.078;21.014;2022-08-02T07:11:04;4.63;;;2.80;;
45254;SDS011;30989;52.078;21.014;2022-08-02T07:13:30;6.35;;;2.83;;
45254;SDS011;30989;52.078;21.014;2022-08-02T07:15:56;5.72;;;3.28;;
45254;SDS011;30989;52.078;21.014;2022-08-02T07:18:22;7.70;;;2.90;;
45254;SDS011;30989;52.078;21.014;2022-08-02T07:20:48;3.92;;;2.55;;
45254;SDS011;30989;52.078;21.014;2022-08-02T07:23:13;7.00;;;2.80;;
45254;SDS011;30989;52.078;21.014;2022-08-02T07:25:39;6.47;;;3.05;;
45254;SDS011;30989;52.078;21.014;2022-08-02T07:28:05;6.70;;;3.20;;
45254;SDS011;30989;52.078;21.014;2022-08-02T07:30:34;5.53;;;2.60;;
45254;SDS011;30989;52.078;21.014;2022-08-02T07:33:00;6.18;;;2.60;;
45254;SDS011;30989;52.078;21.014;2022-08-02T07:35:25;4.45;;;2.55;;
45254;SDS011;30989;52.078;21.014;2022-08-02T07:37:51;5.05;;;2.78;;
45254;SDS011;30989;52.078;21.014;2022-08-02T07:40:18;4.05;;;2.58;;
45254;SDS011;30989;52.078;21.014;2022-08-02T07:42:44;10.15;;;3.03;;
45254;SDS011;30989;52.078;21.014;2022-08-02T07:45:12;5.20;;;2.60;;
45254;SDS011;30989;52.078;21.014;2022-08-02T07:47:38;13.95;;;3.15;;
45254;SDS011;30989;52.078;21.014;2022-08-02T07:50:06;5.93;;;2.60;;
45254;SDS011;30989;52.078;21.014;2022-08-02T07:52:32;8.55;;;2.97;;
45254;SDS011;30989;52.078;21.014;2022-08-02T07:54:58;4.05;;;2.25;;
45254;SDS011;30989;52.078;21.014;2022-08-02T07:57:24;5.30;;;2.70;;
45254;SDS011;30989;52.078;21.014;2022-08-02T07:59:49;4.10;;;2.40;;
45254;SDS011;30989;52.078;21.014;2022-08-02T08:02:15;8.75;;;4.03;;
45254;SDS011;30989;52.078;21.014;2022-08-02T08:04:41;4.10;;;2.50;;
45254;SDS011;30989;52.078;21.014;2022-08-02T08:07:07;5.88;;;2.30;;
45254;SDS011;30989;52.078;21.014;2022-08-02T08:09:35;4.57;;;1.75;;
45254;SDS011;30989;52.078;21.014;2022-08-02T08:12:08;11.52;;;2.28;;
45254;SDS011;30989;52.078;21.014;2022-08-02T08:14:34;4.97;;;2.30;;
45254;SDS011;30989;52.078;21.014;2022-08-02T08:17:00;3.95;;;2.03;;
45254;SDS011;30989;52.078;21.014;2022-08-02T08:19:25;3.35;;;1.58;;
45254;SDS011;30989;52.078;21.014;2022-08-02T08:21:51;2.63;;;1.60;;
45254;SDS011;30989;52.078;21.014;2022-08-02T08:24:16;3.33;;;1.50;;
45254;SDS011;30989;52.078;21.014;2022-08-02T08:26:42;2.83;;;1.80;;
45254;SDS011;30989;52.078;21.014;2022-08-02T08:29:07;3.67;;;1.77;;
45254;SDS011;30989;52.078;21.014;2022-08-02T08:31:33;3.35;;;1.60;;
45254;SDS011;30989;52.078;21.014;2022-08-02T08:33:59;4.20;;;1.85;;
45254;SDS011;30989;52.078;21.014;2022-08-02T08:36:25;3.25;;;1.73;;
45254;SDS011;30989;52.078;21.014;2022-08-02T08:38:50;4.97;;;1.50;;
45254;SDS011;30989;52.078;21.014;2022-08-02T08:41:16;4.53;;;1.60;;
45254;SDS011;30989;52.078;21.014;2022-08-02T08:43:43;2.58;;;1.58;;
45254;SDS011;30989;52.078;21.014;2022-08-02T08:46:10;3.85;;;1.58;;
45254;SDS011;30989;52.078;21.014;2022-08-02T08:48:39;8.82;;;2.03;;
45254;SDS011;30989;52.078;21.014;2022-08-02T08:51:11;2.90;;;1.70;;
45254;SDS011;30989;52.078;21.014;2022-08-02T08:53:41;3.97;;;1.50;;
45254;SDS011;30989;52.078;21.014;2022-08-02T08:56:10;2.97;;;1.60;;
45254;SDS011;30989;52.078;21.014;2022-08-02T08:58:39;4.13;;;1.40;;
45254;SDS011;30989;52.078;21.014;2022-08-02T09:01:04;9.35;;;4.40;;
45254;SDS011;30989;52.078;21.014;2022-08-02T09:03:30;3.92;;;1.88;;
45254;SDS011;30989;52.078;21.014;2022-08-02T09:05:56;3.35;;;1.60;;
45254;SDS011;30989;52.078;21.014;2022-08-02T09:08:23;4.07;;;1.98;;
45254;SDS011;30989;52.078;21.014;2022-08-02T09:10:49;3.83;;;1.67;;
45254;SDS011;30989;52.078;21.014;2022-08-02T09:13:20;5.25;;;2.47;;
45254;SDS011;30989;52.078;21.014;2022-08-02T09:15:55;4.05;;;1.50;;
45254;SDS011;30989;52.078;21.014;2022-08-02T09:18:28;4.32;;;1.48;;
45254;SDS011;30989;52.078;21.014;2022-08-02T09:21:01;3.63;;;1.70;;
45254;SDS011;30989;52.078;21.014;2022-08-02T09:23:39;4.63;;;2.17;;
45254;SDS011;30989;52.078;21.014;2022-08-02T09:26:07;4.90;;;1.88;;
45254;SDS011;30989;52.078;21.014;2022-08-02T09:28:36;4.20;;;1.73;;
45254;SDS011;30989;52.078;21.014;2022-08-02T09:31:04;5.25;;;1.77;;
45254;SDS011;30989;52.078;21.014;2022-08-02T09:33:33;4.25;;;1.60;;
45254;SDS011;30989;52.078;21.014;2022-08-02T09:36:06;4.78;;;1.88;;
45254;SDS011;30989;52.078;21.014;2022-08-02T09:38:34;6.20;;;2.00;;
45254;SDS011;30989;52.078;21.014;2022-08-02T09:41:00;7.60;;;1.90;;
45254;SDS011;30989;52.078;21.014;2022-08-02T09:44:01;3.78;;;1.63;;
45254;SDS011;30989;52.078;21.014;2022-08-02T09:46:27;5.30;;;1.88;;
45254;SDS011;30989;52.078;21.014;2022-08-02T09:51:30;4.88;;;2.83;;
45254;SDS011;30989;52.078;21.014;2022-08-02T09:53:59;2.65;;;1.42;;
45254;SDS011;30989;52.078;21.014;2022-08-02T09:56:28;7.50;;;2.00;;
45254;SDS011;30989;52.078;21.014;2022-08-02T09:59:05;3.55;;;1.90;;
45254;SDS011;30989;52.078;21.014;2022-08-02T10:01:32;2.35;;;1.50;;
45254;SDS011;30989;52.078;21.014;2022-08-02T10:03:59;6.78;;;1.50;;
45254;SDS011;30989;52.078;21.014;2022-08-02T10:06:29;2.97;;;1.70;;
45254;SDS011;30989;52.078;21.014;2022-08-02T10:08:55;3.90;;;1.60;;
45254;SDS011;30989;52.078;21.014;2022-08-02T10:11:22;5.93;;;2.03;;
45254;SDS011;30989;52.078;21.014;2022-08-02T10:13:49;3.65;;;1.80;;
45254;SDS011;30989;52.078;21.014;2022-08-02T10:16:16;5.35;;;1.80;;
45254;SDS011;30989;52.078;21.014;2022-08-02T10:18:46;3.70;;;1.67;;
45254;SDS011;30989;52.078;21.014;2022-08-02T10:21:17;3.03;;;1.80;;
45254;SDS011;30989;52.078;21.014;2022-08-02T10:23:48;2.88;;;1.50;;
45254;SDS011;30989;52.078;21.014;2022-08-02T10:26:15;4.25;;;1.63;;
45254;SDS011;30989;52.078;21.014;2022-08-02T10:28:44;2.90;;;1.60;;
45254;SDS011;30989;52.078;21.014;2022-08-02T10:31:11;6.03;;;1.50;;
45254;SDS011;30989;52.078;21.014;2022-08-02T10:33:42;2.47;;;1.30;;
45254;SDS011;30989;52.078;21.014;2022-08-02T10:36:09;3.08;;;1.40;;
45254;SDS011;30989;52.078;21.014;2022-08-02T10:38:36;2.97;;;1.50;;
45254;SDS011;30989;52.078;21.014;2022-08-02T10:41:02;4.53;;;1.40;;
45254;SDS011;30989;52.078;21.014;2022-08-02T10:54:18;2.97;;;1.38;;
45254;SDS011;30989;52.078;21.014;2022-08-02T10:56:48;4.40;;;1.35;;
45254;SDS011;30989;52.078;21.014;2022-08-02T10:59:28;4.30;;;1.75;;
45254;SDS011;30989;52.078;21.014;2022-08-02T11:02:02;10.65;;;1.83;;
45254;SDS011;30989;52.078;21.014;2022-08-02T11:04:30;2.75;;;1.40;;
45254;SDS011;30989;52.078;21.014;2022-08-02T11:07:18;2.85;;;1.52;;
45254;SDS011;30989;52.078;21.014;2022-08-02T11:09:46;2.92;;;1.80;;
45254;SDS011;30989;52.078;21.014;2022-08-02T11:12:14;2.10;;;1.30;;
45254;SDS011;30989;52.078;21.014;2022-08-02T11:14:42;2.72;;;1.48;;
45254;SDS011;30989;52.078;21.014;2022-08-02T11:17:17;5.78;;;2.67;;
45254;SDS011;30989;52.078;21.014;2022-08-02T11:22:36;4.57;;;1.50;;
45254;SDS011;30989;52.078;21.014;2022-08-02T11:27:46;4.78;;;1.60;;
45254;SDS011;30989;52.078;21.014;2022-08-02T11:30:13;3.20;;;1.42;;
45254;SDS011;30989;52.078;21.014;2022-08-02T11:32:39;6.47;;;1.45;;
45254;SDS011;30989;52.078;21.014;2022-08-02T11:35:05;4.07;;;2.33;;
45254;SDS011;30989;52.078;21.014;2022-08-02T11:37:32;3.30;;;1.77;;
45254;SDS011;30989;52.078;21.014;2022-08-02T11:40:00;2.35;;;1.35;;
45254;SDS011;30989;52.078;21.014;2022-08-02T11:42:34;3.80;;;1.67;;
45254;SDS011;30989;52.078;21.014;2022-08-02T11:45:04;6.13;;;1.60;;
45254;SDS011;30989;52.078;21.014;2022-08-02T11:47:31;3.00;;;1.83;;
45254;SDS011;30989;52.078;21.014;2022-08-02T11:50:05;3.45;;;1.73;;
45254;SDS011;30989;52.078;21.014;2022-08-02T11:52:32;2.70;;;1.38;;
45254;SDS011;30989;52.078;21.014;2022-08-02T11:54:59;4.55;;;1.60;;
45254;SDS011;30989;52.078;21.014;2022-08-02T11:57:24;3.80;;;1.42;;
45254;SDS011;30989;52.078;21.014;2022-08-02T11:59:51;4.07;;;1.65;;
45254;SDS011;30989;52.078;21.014;2022-08-02T12:02:21;5.78;;;1.48;;
45254;SDS011;30989;52.078;21.014;2022-08-02T12:04:57;5.75;;;1.77;;
45254;SDS011;30989;52.078;21.014;2022-08-02T12:07:32;3.00;;;1.80;;
45254;SDS011;30989;52.078;21.014;2022-08-02T12:10:10;3.60;;;1.85;;
45254;SDS011;30989;52.078;21.014;2022-08-02T12:15:13;4.50;;;1.67;;
45254;SDS011;30989;52.078;21.014;2022-08-02T12:17:38;4.72;;;1.20;;
45254;SDS011;30989;52.078;21.014;2022-08-02T12:20:33;4.53;;;1.45;;
45254;SDS011;30989;52.078;21.014;2022-08-02T12:23:03;4.20;;;1.80;;
45254;SDS011;30989;52.078;21.014;2022-08-02T12:25:28;3.60;;;1.50;;
45254;SDS011;30989;52.078;21.014;2022-08-02T12:28:16;5.35;;;1.77;;
45254;SDS011;30989;52.078;21.014;2022-08-02T12:30:57;2.92;;;1.70;;
45254;SDS011;30989;52.078;21.014;2022-08-02T12:33:25;3.20;;;1.50;;
45254;SDS011;30989;52.078;21.014;2022-08-02T12:35:52;3.60;;;1.55;;
45254;SDS011;30989;52.078;21.014;2022-08-02T12:38:18;2.80;;;1.70;;
45254;SDS011;30989;52.078;21.014;2022-08-02T12:40:43;6.40;;;2.00;;
45254;SDS011;30989;52.078;21.014;2022-08-02T12:43:18;6.68;;;2.42;;
45254;SDS011;30989;52.078;21.014;2022-08-02T12:45:47;7.63;;;1.98;;
45254;SDS011;30989;52.078;21.014;2022-08-02T12:48:14;6.13;;;1.92;;
45254;SDS011;30989;52.078;21.014;2022-08-02T12:50:41;5.07;;;2.40;;
45254;SDS011;30989;52.078;21.014;2022-08-02T12:53:16;10.88;;;1.88;;
45254;SDS011;30989;52.078;21.014;2022-08-02T12:55:52;9.73;;;2.47;;
45254;SDS011;30989;52.078;21.014;2022-08-02T12:58:19;5.10;;;2.00;;
45254;SDS011;30989;52.078;21.014;2022-08-02T13:00:52;4.20;;;2.03;;
45254;SDS011;30989;52.078;21.014;2022-08-02T13:03:19;6.35;;;2.00;;
45254;SDS011;30989;52.078;21.014;2022-08-02T13:05:45;4.53;;;1.40;;
45254;SDS011;30989;52.078;21.014;2022-08-02T13:08:11;4.55;;;1.70;;
45254;SDS011;30989;52.078;21.014;2022-08-02T13:10:37;4.57;;;1.85;;
45254;SDS011;30989;52.078;21.014;2022-08-02T13:13:02;2.58;;;1.50;;
45254;SDS011;30989;52.078;21.014;2022-08-02T13:15:28;3.85;;;1.55;;
45254;SDS011;30989;52.078;21.014;2022-08-02T13:17:53;3.38;;;1.67;;
45254;SDS011;30989;52.078;21.014;2022-08-02T13:20:19;2.78;;;1.58;;
45254;SDS011;30989;52.078;21.014;2022-08-02T13:22:45;4.60;;;1.40;;
45254;SDS011;30989;52.078;21.014;2022-08-02T13:25:10;7.10;;;2.05;;
45254;SDS011;30989;52.078;21.014;2022-08-02T13:27:36;3.17;;;1.52;;
45254;SDS011;30989;52.078;21.014;2022-08-02T13:30:02;4.30;;;1.73;;
45254;SDS011;30989;52.078;21.014;2022-08-02T13:32:29;6.57;;;1.80;;
45254;SDS011;30989;52.078;21.014;2022-08-02T13:34:55;5.65;;;2.33;;
45254;SDS011;30989;52.078;21.014;2022-08-02T13:37:21;3.13;;;1.75;;
45254;SDS011;30989;52.078;21.014;2022-08-02T13:39:48;3.30;;;1.58;;
45254;SDS011;30989;52.078;21.014;2022-08-02T13:42:13;6.95;;;2.40;;
45254;SDS011;30989;52.078;21.014;2022-08-02T13:44:39;3.33;;;1.70;;
45254;SDS011;30989;52.078;21.014;2022-08-02T13:47:04;5.15;;;1.70;;
45254;SDS011;30989;52.078;21.014;2022-08-02T13:49:30;5.30;;;2.10;;
45254;SDS011;30989;52.078;21.014;2022-08-02T13:51:56;4.93;;;1.80;;
45254;SDS011;30989;52.078;21.014;2022-08-02T13:54:21;4.43;;;1.60;;
45254;SDS011;30989;52.078;21.014;2022-08-02T13:56:47;4.60;;;1.90;;
45254;SDS011;30989;52.078;21.014;2022-08-02T13:59:12;4.75;;;2.38;;
45254;SDS011;30989;52.078;21.014;2022-08-02T14:01:38;3.85;;;1.33;;
45254;SDS011;30989;52.078;21.014;2022-08-02T14:04:03;3.35;;;1.30;;
45254;SDS011;30989;52.078;21.014;2022-08-02T14:06:29;3.63;;;1.50;;
45254;SDS011;30989;52.078;21.014;2022-08-02T14:08:54;4.97;;;1.90;;
45254;SDS011;30989;52.078;21.014;2022-08-02T14:11:20;3.25;;;1.50;;
45254;SDS011;30989;52.078;21.014;2022-08-02T14:13:46;3.83;;;1.55;;
45254;SDS011;30989;52.078;21.014;2022-08-02T14:16:11;2.92;;;1.65;;
45254;SDS011;30989;52.078;21.014;2022-08-02T14:18:37;3.35;;;1.98;;
45254;SDS011;30989;52.078;21.014;2022-08-02T14:21:02;4.32;;;1.55;;
45254;SDS011;30989;52.078;21.014;2022-08-02T14:23:28;5.18;;;2.00;;
45254;SDS011;30989;52.078;21.014;2022-08-02T14:25:55;3.53;;;1.85;;
45254;SDS011;30989;52.078;21.014;2022-08-02T14:28:21;6.60;;;1.80;;
45254;SDS011;30989;52.078;21.014;2022-08-02T14:30:46;3.78;;;2.08;;
45254;SDS011;30989;52.078;21.014;2022-08-02T14:33:12;4.13;;;1.67;;
45254;SDS011;30989;52.078;21.014;2022-08-02T14:35:37;4.35;;;2.05;;
45254;SDS011;30989;52.078;21.014;2022-08-02T14:38:03;7.55;;;2.28;;
45254;SDS011;30989;52.078;21.014;2022-08-02T14:40:28;7.47;;;2.05;;
45254;SDS011;30989;52.078;21.014;2022-08-02T14:42:54;4.03;;;1.65;;
45254;SDS011;30989;52.078;21.014;2022-08-02T14:45:20;6.05;;;2.03;;
45254;SDS011;30989;52.078;21.014;2022-08-02T14:47:50;6.13;;;1.42;;
45254;SDS011;30989;52.078;21.014;2022-08-02T14:50:16;5.53;;;1.73;;
45254;SDS011;30989;52.078;21.014;2022-08-02T14:52:46;3.25;;;1.65;;
45254;SDS011;30989;52.078;21.014;2022-08-02T14:55:12;4.88;;;1.88;;
45254;SDS011;30989;52.078;21.014;2022-08-02T14:57:38;4.45;;;2.00;;
45254;SDS011;30989;52.078;21.014;2022-08-02T15:00:03;4.97;;;1.70;;
45254;SDS011;30989;52.078;21.014;2022-08-02T15:02:30;4.82;;;1.50;;
45254;SDS011;30989;52.078;21.014;2022-08-02T15:04:58;3.83;;;1.67;;
45254;SDS011;30989;52.078;21.014;2022-08-02T15:07:24;3.35;;;1.90;;
45254;SDS011;30989;52.078;21.014;2022-08-02T15:09:52;4.43;;;1.85;;
45254;SDS011;30989;52.078;21.014;2022-08-02T15:12:18;6.60;;;1.75;;